WXM80 ListenWXM80 Stop

You find our weather info also at:

UK Metoffice

WeatherCloud

Weather Underground

Northeastern Weather Network

AWEKAS

Citizen Weather Observer Program (CWOP)

HAMweather, WeatherForYou, PWS Weather


Weather Underground History page Text

Daily Summary for July 26, 2017 Units:  Metric    English   Both
« Previous Day
Next Day »
Daily Weekly Monthly Yearly Custom
  High: Low: Average:
Temperature: 27.1 °C 16.9 °C 21.3 °C
Dew Point: 17.8 °C 14.6 °C 15.8 °C
Humidity: 92 % 51 % 72 %
Wind Speed: 9.3 km/h 0 km/h 1.8 km/h
Wind Gust: 14.8 km/h - -
Wind:- - East
Pressure: 1023.2 hPa 1018.8 hPa -
Precipitation: 0.25 mm    
Historical Graphs
 
 
Tabular Data for July 26, 2017
Time Temperature Dew Point Pressure Wind Wind Speed Wind Gust Humidity Rainfall Rate (Hourly)
00:03 18.6 °C 15.8 °C 1021.6 hPa ENE 3.7 km/h 13 km/h 84 % 0 mm
00:08 18.6 °C 15.7 °C 1021.6 hPa NE 2.4 km/h 3.7 km/h 83 % 0 mm
00:13 18.7 °C 15.6 °C 1021.6 hPa ENE 1.4 km/h 5.6 km/h 82 % 0 mm
00:18 18.7 °C 15.6 °C 1021.6 hPa ENE 4.5 km/h 13 km/h 82 % 0 mm
00:23 18.7 °C 15.4 °C 1021.9 hPa ENE 4.7 km/h 11.3 km/h 81 % 0 mm
00:28 18.8 °C 15.3 °C 1021.6 hPa ENE 5 km/h 7.4 km/h 80 % 0 mm
00:33 18.8 °C 15.4 °C 1021.6 hPa NE 1 km/h 3.7 km/h 81 % 0 mm
00:38 18.8 °C 15.3 °C 1021.6 hPa ENE 3.4 km/h 7.4 km/h 80 % 0 mm
00:43 18.8 °C 15.3 °C 1021.6 hPa NE 2.6 km/h 5.6 km/h 80 % 0 mm
00:48 18.8 °C 15.3 °C 1021.6 hPa NE 0.5 km/h 5.6 km/h 80 % 0 mm
00:53 18.9 °C 15.6 °C 1021.6 hPa ENE 3.4 km/h 5.6 km/h 81 % 0 mm
00:58 18.9 °C 15.6 °C 1021.6 hPa ENE 1.4 km/h 3.7 km/h 81 % 0 mm
01:03 18.9 °C 15.4 °C 1021.9 hPa Calm     80 % 0 mm
01:08 18.9 °C 15.4 °C 1021.9 hPa ENE 0.8 km/h 3.2 km/h 80 % 0 mm
01:13 18.9 °C 15.4 °C 1021.9 hPa Calm     80 % 0 mm
01:18 18.8 °C 15.3 °C 1021.9 hPa Calm   1.9 km/h 80 % 0 mm
01:23 18.8 °C 15.3 °C 1021.9 hPa Calm     80 % 0 mm
01:28 18.8 °C 15.3 °C 1021.9 hPa Calm     80 % 0 mm
01:33 18.8 °C 15.3 °C 1022.2 hPa Calm     80 % 0 mm
01:38 18.7 °C 15.3 °C 1021.9 hPa Calm     81 % 0 mm
01:43 18.6 °C 15.3 °C 1022.2 hPa Calm     81 % 0 mm
01:48 18.5 °C 15.2 °C 1021.9 hPa Calm     81 % 0 mm
01:53 18.4 °C 15.3 °C 1022.2 hPa Calm   1.9 km/h 82 % 0 mm
01:58 18.3 °C 15.2 °C 1022.2 hPa NE 0.2 km/h 3.2 km/h 82 % 0 mm
02:03 18.3 °C 15.3 °C 1021.9 hPa Calm   1.9 km/h 83 % 0 mm
02:09 18.2 °C 15.2 °C 1021.9 hPa ENE 0.8 km/h 3.2 km/h 83 % 0 mm
02:14 18.1 °C 15.3 °C 1021.9 hPa Calm   3.7 km/h 84 % 0 mm
02:19 18 °C 15.3 °C 1021.9 hPa North 1.6 km/h 6.4 km/h 84 % 0 mm
02:24 17.9 °C 15.2 °C 1021.9 hPa North 0.2 km/h 1.9 km/h 84 % 0 mm
02:29 17.9 °C 15.3 °C 1021.9 hPa NNE 0.6 km/h 3.7 km/h 85 % 0 mm
02:34 17.8 °C 15.3 °C 1021.9 hPa NNE 0.2 km/h 5.6 km/h 85 % 0 mm
02:39 17.8 °C 15.2 °C 1021.9 hPa NNE 2.7 km/h 5.6 km/h 85 % 0 mm
02:44 17.8 °C 15.4 °C 1021.9 hPa NE 1 km/h 3.7 km/h 86 % 0 mm
02:49 17.7 °C 15.3 °C 1021.9 hPa NNE 1 km/h 3.7 km/h 86 % 0 mm
02:54 17.7 °C 15.5 °C 1021.9 hPa ENE 0.5 km/h 7.4 km/h 87 % 0 mm
02:59 17.7 °C 15.5 °C 1021.9 hPa NNE 2.1 km/h 5.6 km/h 87 % 0 mm
03:04 17.6 °C 15.4 °C 1021.6 hPa NE 1 km/h 5.6 km/h 87 % 0 mm
03:09 17.6 °C 15.4 °C 1021.6 hPa NNE 3.1 km/h 5.6 km/h 87 % 0 mm
03:15 17.6 °C 15.4 °C 1021.6 hPa NNE 1.9 km/h 5.6 km/h 87 % 0 mm
03:20 17.5 °C 15.5 °C 1021.6 hPa NNE 2.4 km/h 5.6 km/h 88 % 0 mm
03:25 17.5 °C 15.3 °C 1021.6 hPa NNE 4.3 km/h 6.4 km/h 87 % 0 mm
03:30 17.5 °C 15.3 °C 1021.6 hPa NNE 2.6 km/h 5.6 km/h 87 % 0 mm
03:35 17.5 °C 15.5 °C 1021.6 hPa NE 6.6 km/h 11.1 km/h 88 % 0 mm
03:40 17.5 °C 15.5 °C 1021.6 hPa ENE 1.4 km/h 5.6 km/h 88 % 0 mm
03:45 17.5 °C 15.5 °C 1021.2 hPa NE 2.1 km/h 5.6 km/h 88 % 0 mm
03:50 17.5 °C 15.5 °C 1021.6 hPa North 3.2 km/h 5.6 km/h 88 % 0 mm
03:55 17.5 °C 15.5 °C 1021.6 hPa NNE 2.6 km/h 3.7 km/h 88 % 0 mm
04:00 17.5 °C 15.5 °C 1021.6 hPa NE 0.2 km/h 1.9 km/h 88 % 0 mm
04:05 17.5 °C 15.5 °C 1021.2 hPa ENE 1.4 km/h 5.6 km/h 88 % 0 mm
04:10 17.5 °C 15.5 °C 1021.2 hPa NE 2.9 km/h 6.4 km/h 88 % 0 mm
04:15 17.4 °C 15.4 °C 1021.2 hPa NNE 3.2 km/h 5.6 km/h 88 % 0 mm
04:20 17.4 °C 15.4 °C 1021.2 hPa NE 3.9 km/h 8 km/h 88 % 0 mm
04:26 17.4 °C 15.4 °C 1021.2 hPa NE 3.2 km/h 8 km/h 88 % 0 mm
04:31 17.4 °C 15.4 °C 1021.2 hPa NE 3.2 km/h 11.3 km/h 88 % 0 mm
04:36 17.4 °C 15.2 °C 1021.2 hPa NE 1.6 km/h 6.4 km/h 87 % 0 mm
04:41 17.4 °C 15.4 °C 1021.2 hPa NE 1.6 km/h 8 km/h 88 % 0 mm
04:46 17.4 °C 15.2 °C 1021.2 hPa NE 1.6 km/h 6.4 km/h 87 % 0 mm
04:51 17.4 °C 15.2 °C 1021.6 hPa NE 3.2 km/h 8 km/h 87 % 0 mm
04:56 17.3 °C 15.2 °C 1021.2 hPa NE 1.6 km/h 6.4 km/h 87 % 0 mm
05:01 17.4 °C 15.2 °C 1021.6 hPa NE 0.8 km/h 5.6 km/h 87 % 0 mm
05:06 17.3 °C 15.2 °C 1021.6 hPa NNE 0.6 km/h 5.6 km/h 87 % 0 mm
05:11 17.3 °C 15.2 °C 1021.6 hPa NNE 0.3 km/h 3.7 km/h 87 % 0 mm
05:16 17.3 °C 15.1 °C 1021.6 hPa Calm   1.9 km/h 87 % 0 mm
05:21 17.3 °C 15.1 °C 1021.6 hPa NNE 0.2 km/h 3.2 km/h 87 % 0 mm
05:26 17.2 °C 15.1 °C 1021.9 hPa Calm   1.9 km/h 87 % 0 mm
05:27 17.2 °C 15.1 °C 1021.9 hPa Calm   1.9 km/h 87 % 0 mm
05:32 17.2 °C 15 °C 1021.9 hPa Calm     87 % 0 mm
05:37 17.2 °C 15 °C 1021.9 hPa Calm     87 % 0 mm
05:42 17.1 °C 14.9 °C 1021.9 hPa Calm     87 % 0 mm
05:47 17.1 °C 14.9 °C 1022.2 hPa Calm     87 % 0 mm
05:51 17 °C 14.8 °C 1021.9 hPa NW 0.5 km/h 1.9 km/h 87 % 0 mm
05:56 16.9 °C 14.9 °C 1021.9 hPa NW 0.8 km/h 3.7 km/h 88 % 0 mm
06:01 16.9 °C 14.9 °C 1022.2 hPa NW 1.3 km/h 5.6 km/h 88 % 0 mm
06:06 16.9 °C 15.1 °C 1022.2 hPa Calm   5.6 km/h 89 % 0 mm
06:11 16.9 °C 15.1 °C 1022.2 hPa North 1.1 km/h 3.7 km/h 89 % 0 mm
06:16 16.9 °C 15.2 °C 1022.2 hPa North 3.7 km/h 8 km/h 90 % 0 mm
06:21 16.9 °C 15.2 °C 1022.2 hPa North 0.6 km/h 3.7 km/h 90 % 0 mm
06:26 16.9 °C 15.4 °C 1022.2 hPa Calm     91 % 0 mm
06:31 17 °C 15.5 °C 1022.6 hPa NNE 1.8 km/h 5.6 km/h 91 % 0 mm
06:36 17.1 °C 15.6 °C 1022.2 hPa NNW 2.1 km/h 4.8 km/h 91 % 0 mm
06:41 17.3 °C 15.9 °C 1022.6 hPa North 2.9 km/h 5.6 km/h 92 % 0 mm
06:46 17.4 °C 15.9 °C 1022.2 hPa North 1.9 km/h 3.7 km/h 91 % 0 mm
06:51 17.6 °C 16.1 °C 1022.2 hPa NNE 5.8 km/h 6.4 km/h 91 % 0 mm
06:56 17.8 °C 16.1 °C 1022.2 hPa NNW 2.6 km/h 5.6 km/h 90 % 0 mm
06:59 17.8 °C 16.2 °C 1022.2 hPa NNW 1.3 km/h 5.6 km/h 90 % 0 mm
07:04 18 °C 16.3 °C 1022.6 hPa North 2.7 km/h 5.6 km/h 90 % 0 mm
07:09 18.2 °C 16.6 °C 1022.6 hPa NNE 4.7 km/h 9.7 km/h 90 % 0 mm
07:14 18.4 °C 16.6 °C 1022.6 hPa NNE 3.4 km/h 5.6 km/h 89 % 0 mm
07:20 18.7 °C 16.9 °C 1022.6 hPa NE 3.7 km/h 5.6 km/h 89 % 0 mm
07:25 18.9 °C 17.1 °C 1022.6 hPa North 2.7 km/h 3.7 km/h 89 % 0 mm
07:30 19.1 °C 16.9 °C 1022.6 hPa NNE 5.1 km/h 9.3 km/h 87 % 0 mm
07:35 19.2 °C 16.8 °C 1022.6 hPa North 5.3 km/h 9.3 km/h 86 % 0 mm
07:40 19.3 °C 16.7 °C 1022.6 hPa NE 2.1 km/h 5.6 km/h 85 % 0 mm
07:45 19.4 °C 17 °C 1022.6 hPa North 1.8 km/h 5.6 km/h 86 % 0 mm
07:50 19.5 °C 17.3 °C 1022.6 hPa NNE 4.2 km/h 5.6 km/h 87 % 0 mm
07:55 19.5 °C 17.1 °C 1022.9 hPa NNW 1.6 km/h 3.7 km/h 86 % 0 mm
08:00 19.5 °C 16.9 °C 1022.9 hPa NE 2.3 km/h 5.6 km/h 85 % 0 mm
08:05 19.6 °C 17.2 °C 1022.9 hPa NE 2.7 km/h 3.7 km/h 86 % 0 mm
08:10 19.5 °C 16.9 °C 1022.9 hPa North 4 km/h 9.3 km/h 85 % 0 mm
08:15 19.5 °C 16.7 °C 1023.2 hPa NNE 1.8 km/h 5.6 km/h 84 % 0 mm
08:20 19.5 °C 16.9 °C 1023.2 hPa NE 0.8 km/h 3.7 km/h 85 % 0 mm
08:25 19.5 °C 16.7 °C 1023.2 hPa NNE 4.8 km/h 5.6 km/h 84 % 0 mm
08:30 19.5 °C 16.6 °C 1023.2 hPa NNE 4.5 km/h 7.4 km/h 83 % 0 mm
08:35 19.6 °C 16.6 °C 1023.2 hPa North 1.8 km/h 3.7 km/h 83 % 0 mm
08:36 19.6 °C 16.6 °C 1023.2 hPa NNE 1.6 km/h 4.8 km/h 83 % 0 mm
08:41 19.6 °C 16.6 °C 1023.2 hPa NNE 1.6 km/h 3.2 km/h 83 % 0 mm
08:46 19.6 °C 16.7 °C 1023.2 hPa NNE 3.2 km/h 8 km/h 83 % 0 mm
08:51 19.6 °C 16.4 °C 1023.2 hPa North 3.2 km/h 6.4 km/h 82 % 0 mm
08:56 19.6 °C 16.6 °C 1023.2 hPa North 1.6 km/h 4.8 km/h 83 % 0 mm
09:01 19.6 °C 16.6 °C 1023.2 hPa North 2.1 km/h 5.6 km/h 83 % 0.25 mm
09:06 19.6 °C 16.7 °C 1023.2 hPa NNE 0.3 km/h 5.6 km/h 83 % 0.25 mm
09:11 19.7 °C 16.5 °C 1023.2 hPa NNE 2.6 km/h 5.6 km/h 82 % 0.25 mm
09:16 19.7 °C 16.4 °C 1022.9 hPa North 3.7 km/h 7.4 km/h 81 % 0.25 mm
09:21 19.7 °C 16.4 °C 1022.9 hPa NNE 1.6 km/h 7.4 km/h 81 % 0.25 mm
09:26 19.7 °C 16.2 °C 1023.2 hPa North 1.1 km/h 6.4 km/h 80 % 0.25 mm
09:31 19.7 °C 16.2 °C 1023.2 hPa NNE 1.1 km/h 3.7 km/h 80 % 0.25 mm
09:36 19.7 °C 16.4 °C 1023.2 hPa NE 0.6 km/h 3.7 km/h 81 % 0.25 mm
09:41 19.7 °C 16.4 °C 1023.2 hPa North 4.5 km/h 7.4 km/h 81 % 0 mm
09:46 19.8 °C 16.5 °C 1023.2 hPa North 2.1 km/h 5.6 km/h 81 % 0 mm
09:51 19.9 °C 16.6 °C 1022.9 hPa ENE 2.9 km/h 7.4 km/h 81 % 0 mm
09:56 20.1 °C 16.6 °C 1022.9 hPa North 2.3 km/h 5.6 km/h 80 % 0 mm
10:01 20.3 °C 16.5 °C 1022.9 hPa NNE 2.4 km/h 7.4 km/h 79 % 0 mm
10:06 20.6 °C 15.8 °C 1022.9 hPa North 3.5 km/h 5.6 km/h 74 % 0 mm
10:11 21 °C 15.6 °C 1022.9 hPa North 0.6 km/h 3.7 km/h 71 % 0 mm
10:16 21.4 °C 15.5 °C 1022.9 hPa North 4.2 km/h 5.6 km/h 69 % 0 mm
10:21 22 °C 15.8 °C 1022.6 hPa Calm   1.9 km/h 68 % 0 mm
10:26 22.5 °C 16.1 °C 1022.6 hPa NNE 2.4 km/h 5.6 km/h 67 % 0 mm
10:31 22.9 °C 15.4 °C 1022.9 hPa NNE 4.5 km/h 5.6 km/h 63 % 0 mm
10:36 23.3 °C 15.9 °C 1022.6 hPa NE 1.6 km/h 5.6 km/h 63 % 0 mm
10:41 23.8 °C 16.6 °C 1022.6 hPa Calm   3.7 km/h 64 % 0 mm
10:46 24.4 °C 16.6 °C 1022.6 hPa North 4.3 km/h 6.4 km/h 62 % 0 mm
10:51 24.7 °C 17.2 °C 1022.6 hPa NNE 0.2 km/h 3.7 km/h 63 % 0 mm
10:56 25.2 °C 17.4 °C 1022.6 hPa NNW 0.2 km/h 1.9 km/h 62 % 0 mm
11:01 25.5 °C 15.8 °C 1022.6 hPa North 0.6 km/h 5.6 km/h 55 % 0 mm
11:07 25.7 °C 15.9 °C 1022.6 hPa NE 0.8 km/h 7.4 km/h 55 % 0 mm
11:12 25.9 °C 16.5 °C 1022.2 hPa Calm   1.9 km/h 56 % 0 mm
11:17 26.1 °C 16.9 °C 1022.2 hPa NE 1.6 km/h 3.7 km/h 57 % 0 mm
11:22 26.2 °C 16.2 °C 1022.2 hPa North 2.3 km/h 5.6 km/h 54 % 0 mm
11:27 26.4 °C 17.2 °C 1022.2 hPa NE 3.9 km/h 5.6 km/h 57 % 0 mm
11:32 26.5 °C 16.2 °C 1022.2 hPa NNE 4.2 km/h 5.6 km/h 53 % 0 mm
11:34 26.5 °C 16.2 °C 1022.2 hPa ENE 3.9 km/h 7.4 km/h 53 % 0 mm
11:39 26.4 °C 16.4 °C 1022.6 hPa ENE 1.3 km/h 3.7 km/h 54 % 0 mm
11:44 26.5 °C 16.2 °C 1022.2 hPa NE 4.8 km/h 9.3 km/h 53 % 0 mm
11:49 26.6 °C 16.2 °C 1022.6 hPa NNE 3.2 km/h 5.6 km/h 53 % 0 mm
11:50 26.6 °C 16.8 °C 1022.6 hPa NNE 1.6 km/h 5.6 km/h 55 % 0 mm
11:55 26.5 °C 15.8 °C 1022.6 hPa NNE 5 km/h 11.1 km/h 52 % 0 mm
12:00 26.6 °C 16.5 °C 1022.2 hPa ENE 2.1 km/h 5.6 km/h 54 % 0 mm
12:05 26.6 °C 16.5 °C 1022.2 hPa North 2.6 km/h 5.6 km/h 54 % 0 mm
12:10 26.3 °C 16 °C 1022.2 hPa NE 2.3 km/h 5.6 km/h 53 % 0 mm
12:15 26.3 °C 16 °C 1021.9 hPa NE 1.4 km/h 5.6 km/h 53 % 0 mm
12:20 26.4 °C 16.4 °C 1021.9 hPa NE 1.9 km/h 3.7 km/h 54 % 0 mm
12:25 26.6 °C 15.9 °C 1022.2 hPa ENE 4.8 km/h 9.3 km/h 52 % 0 mm
12:30 26.6 °C 16.2 °C 1021.9 hPa NNW 8 km/h 11.1 km/h 53 % 0 mm
12:35 26.6 °C 16.2 °C 1021.9 hPa NNE 3.7 km/h 5.6 km/h 53 % 0 mm
12:40 26.7 °C 17.5 °C 1021.9 hPa NE 4.7 km/h 9.3 km/h 57 % 0 mm
12:45 26.7 °C 16.7 °C 1021.9 hPa NNE 1.1 km/h 5.6 km/h 54 % 0 mm
12:50 26.8 °C 16.7 °C 1021.9 hPa North 5.5 km/h 8 km/h 54 % 0 mm
12:55 26.6 °C 16.5 °C 1021.9 hPa NE 3.7 km/h 7.4 km/h 54 % 0 mm
13:01 26.6 °C 16.6 °C 1021.9 hPa North 4.8 km/h 11.3 km/h 54 % 0 mm
13:06 26.6 °C 15.9 °C 1021.9 hPa NE 4.2 km/h 9.3 km/h 52 % 0 mm
13:11 26.5 °C 17.3 °C 1021.9 hPa NE 3.2 km/h 7.4 km/h 57 % 0 mm
13:16 26.6 °C 15.9 °C 1021.6 hPa North 8.4 km/h 11.1 km/h 52 % 0 mm
13:21 26.6 °C 16.6 °C 1021.6 hPa ENE 2.6 km/h 11.1 km/h 54 % 0 mm
13:26 26.7 °C 16.9 °C 1021.6 hPa NNE 4.7 km/h 11.1 km/h 55 % 0 mm
13:31 26.8 °C 16.4 °C 1021.6 hPa ENE 4 km/h 7.4 km/h 53 % 0 mm
13:36 26.8 °C 16.7 °C 1021.6 hPa NNE 6.3 km/h 11.1 km/h 54 % 0 mm
13:41 26.8 °C 16.7 °C 1021.6 hPa NNE 4.7 km/h 7.4 km/h 54 % 0 mm
13:46 26.9 °C 16.2 °C 1021.6 hPa ENE 1.8 km/h 5.6 km/h 52 % 0 mm
13:51 26.9 °C 17.4 °C 1021.6 hPa ENE 3.4 km/h 5.6 km/h 56 % 0 mm
13:56 27 °C 17.2 °C 1021.2 hPa NE 8.5 km/h 11.1 km/h 55 % 0 mm
14:01 27.1 °C 16.9 °C 1021.2 hPa ENE 3.2 km/h 5.6 km/h 54 % 0 mm
14:06 27.1 °C 17.2 °C 1021.2 hPa NNE 2.7 km/h 7.4 km/h 55 % 0 mm
14:11 27.1 °C 16.1 °C 1021.2 hPa NE 5.1 km/h 5.6 km/h 51 % 0 mm
14:16 27.1 °C 16.1 °C 1021.2 hPa NE 1.6 km/h 5.6 km/h 51 % 0 mm
14:22 27.1 °C 16.9 °C 1021.2 hPa NNE 2.7 km/h 5.6 km/h 54 % 0 mm
14:27 27 °C 16.9 °C 1021.2 hPa North 4.5 km/h 11.1 km/h 54 % 0 mm
14:32 26.9 °C 16.8 °C 1020.9 hPa NE 0.5 km/h 1.9 km/h 54 % 0 mm
14:37 26.8 °C 17.3 °C 1020.9 hPa NE 3.1 km/h 5.6 km/h 56 % 0 mm
14:41 26.6 °C 15.9 °C 1020.9 hPa NE 4.7 km/h 5.6 km/h 52 % 0 mm
14:46 26.5 °C 16.7 °C 1020.9 hPa East 1.3 km/h 5.6 km/h 55 % 0 mm
14:51 26.4 °C 16.1 °C 1020.5 hPa ENE 1.8 km/h 7.4 km/h 53 % 0 mm
14:56 26.3 °C 16 °C 1020.9 hPa ENE 1.8 km/h 5.6 km/h 53 % 0 mm
15:01 26.3 °C 16.8 °C 1020.5 hPa North 2.4 km/h 7.4 km/h 56 % 0 mm
15:06 26.4 °C 16.6 °C 1020.5 hPa NNE 3.1 km/h 5.6 km/h 55 % 0 mm
15:12 26.4 °C 16.1 °C 1020.5 hPa NNE 2.3 km/h 5.6 km/h 53 % 0 mm
15:17 26.4 °C 16.6 °C 1020.5 hPa NNE 1 km/h 5.6 km/h 55 % 0 mm
15:22 26.3 °C 15.9 °C 1020.5 hPa ENE 1.4 km/h 5.6 km/h 53 % 0 mm
15:27 26.3 °C 16.2 °C 1020.5 hPa ENE 4 km/h 6.4 km/h 54 % 0 mm
15:32 26.2 °C 16.7 °C 1020.5 hPa North 4.7 km/h 5.6 km/h 56 % 0 mm
15:37 26.3 °C 17.1 °C 1020.5 hPa NNE 2.9 km/h 4.8 km/h 57 % 0 mm
15:42 26.3 °C 16.3 °C 1020.5 hPa NE 2.9 km/h 5.6 km/h 54 % 0 mm
15:47 26.2 °C 15.9 °C 1020.5 hPa East 4.2 km/h 7.4 km/h 53 % 0 mm
15:52 26.2 °C 16.7 °C 1020.2 hPa NNE 3.4 km/h 5.6 km/h 56 % 0 mm
15:57 26.2 °C 16.1 °C 1020.2 hPa NE 1.9 km/h 5.6 km/h 54 % 0 mm
16:02 26.2 °C 17 °C 1020.2 hPa ENE 1.6 km/h 3.7 km/h 57 % 0 mm
16:07 26 °C 16.3 °C 1020.2 hPa ENE 1.1 km/h 5.6 km/h 55 % 0 mm
16:12 26 °C 17.1 °C 1019.9 hPa Calm   1.9 km/h 58 % 0 mm
16:17 26.1 °C 17.2 °C 1020.2 hPa NE 0.8 km/h 3.2 km/h 58 % 0 mm
16:22 26.1 °C 17.2 °C 1019.9 hPa NE 1.1 km/h 3.7 km/h 58 % 0 mm
16:27 26.1 °C 17.2 °C 1019.9 hPa NE 1.9 km/h 3.7 km/h 58 % 0 mm
16:32 26 °C 17.4 °C 1019.9 hPa Calm   3.2 km/h 59 % 0 mm
16:37 25.9 °C 17.3 °C 1019.9 hPa Calm   1.9 km/h 59 % 0 mm
16:42 25.8 °C 16.7 °C 1019.9 hPa NNE 4.5 km/h 5.6 km/h 57 % 0 mm
16:47 25.6 °C 16.9 °C 1020.2 hPa NE 0.3 km/h 1.9 km/h 59 % 0 mm
16:52 25.3 °C 16.7 °C 1019.9 hPa NE 0.2 km/h 1.9 km/h 59 % 0 mm
16:57 25.1 °C 17 °C 1019.9 hPa ENE 1.1 km/h 3.7 km/h 61 % 0 mm
17:02 24.9 °C 17.1 °C 1019.9 hPa NE 0.8 km/h 7.4 km/h 62 % 0 mm
17:07 24.8 °C 16.7 °C 1019.9 hPa NE 4.3 km/h 5.6 km/h 61 % 0 mm
17:12 24.7 °C 16.7 °C 1019.9 hPa Calm   1.9 km/h 61 % 0 mm
17:17 24.6 °C 16.8 °C 1019.9 hPa NNE 1.4 km/h 3.7 km/h 62 % 0 mm
17:22 24.4 °C 17.2 °C 1019.9 hPa NNE 0.8 km/h 3.7 km/h 64 % 0 mm
17:28 24.4 °C 17.4 °C 1019.5 hPa Calm   1.9 km/h 65 % 0 mm
17:33 24.3 °C 17.8 °C 1019.9 hPa Calm     67 % 0 mm
17:38 24.3 °C 16.8 °C 1019.9 hPa SE 2.1 km/h 5.6 km/h 63 % 0 mm
17:43 24.3 °C 16.3 °C 1019.5 hPa SE 1.9 km/h 7.4 km/h 61 % 0 mm
17:48 24.2 °C 15.9 °C 1019.5 hPa Calm   5.6 km/h 60 % 0 mm
17:53 24.2 °C 16.2 °C 1019.9 hPa WSW 3.2 km/h 11.1 km/h 61 % 0 mm
17:58 24.2 °C 16.7 °C 1019.9 hPa WSW 0.2 km/h 1.9 km/h 63 % 0 mm
18:03 24.2 °C 16.4 °C 1019.9 hPa West 1.9 km/h 5.6 km/h 62 % 0 mm
18:08 24.1 °C 16.4 °C 1019.9 hPa West 0.6 km/h 3.7 km/h 62 % 0 mm
18:13 24.1 °C 15.8 °C 1019.9 hPa Calm   1.6 km/h 60 % 0 mm
18:18 24 °C 15.8 °C 1019.5 hPa West 0.5 km/h 1.9 km/h 60 % 0 mm
18:23 23.9 °C 15.9 °C 1019.5 hPa SE 2.1 km/h 6.4 km/h 61 % 0 mm
18:28 23.8 °C 15.1 °C 1019.5 hPa SE 3.2 km/h 14.8 km/h 58 % 0 mm
18:33 23.7 °C 14.9 °C 1019.5 hPa SE 7.4 km/h 11.3 km/h 58 % 0 mm
18:38 23.3 °C 14.6 °C 1019.5 hPa SE 9.3 km/h 14.8 km/h 58 % 0 mm
18:43 23.2 °C 15.2 °C 1019.5 hPa SE 2.9 km/h 7.4 km/h 61 % 0 mm
18:48 23 °C 15.1 °C 1019.5 hPa SSE 4.3 km/h 11.1 km/h 61 % 0 mm
18:53 22.8 °C 14.9 °C 1019.5 hPa SE 5.5 km/h 7.4 km/h 61 % 0 mm
18:58 22.6 °C 14.7 °C 1019.2 hPa SE 1.1 km/h 5.6 km/h 61 % 0 mm
19:03 22.4 °C 14.6 °C 1019.2 hPa SSE 5.3 km/h 11.1 km/h 61 % 0 mm
19:08 22.3 °C 14.9 °C 1019.2 hPa SE 3.7 km/h 7.4 km/h 63 % 0 mm
19:13 22.2 °C 15.1 °C 1019.2 hPa SSE 1.9 km/h 4.8 km/h 64 % 0 mm
19:18 22.1 °C 14.9 °C 1019.2 hPa SE 1.6 km/h 3.2 km/h 64 % 0 mm
19:23 21.9 °C 14.8 °C 1019.2 hPa Calm   1.9 km/h 64 % 0 mm
19:28 21.8 °C 14.9 °C 1019.2 hPa SE 0.2 km/h 3.7 km/h 65 % 0 mm
19:33 21.8 °C 14.9 °C 1019.2 hPa SE 0.5 km/h 1.9 km/h 65 % 0 mm
19:38 21.7 °C 14.8 °C 1019.2 hPa SE 0.3 km/h 1.6 km/h 65 % 0 mm
19:43 21.7 °C 15.1 °C 1019.2 hPa SSE 0.5 km/h 1.9 km/h 66 % 0 mm
19:46 21.6 °C 15 °C 1019.2 hPa SE 0.3 km/h 7.4 km/h 66 % 0 mm
19:51 21.6 °C 14.9 °C 1019.2 hPa Calm     66 % 0 mm
19:56 21.5 °C 15.1 °C 1019.5 hPa Calm     67 % 0 mm
20:01 21.4 °C 15.1 °C 1019.2 hPa SSE 0.3 km/h 5.6 km/h 67 % 0 mm
20:06 21.3 °C 14.9 °C 1019.2 hPa Calm   1.9 km/h 67 % 0 mm
20:11 21.3 °C 14.9 °C 1019.5 hPa Calm   1.9 km/h 67 % 0 mm
20:16 21.2 °C 15.1 °C 1019.5 hPa SSE 0.3 km/h 1.9 km/h 68 % 0 mm
20:21 21.1 °C 15 °C 1019.5 hPa SSE 0.2 km/h 1.9 km/h 68 % 0 mm
20:26 21.1 °C 14.9 °C 1019.2 hPa Calm     68 % 0 mm
20:31 20.9 °C 15.1 °C 1019.2 hPa Calm     69 % 0 mm
20:36 20.8 °C 15.2 °C 1019.2 hPa Calm     70 % 0 mm
20:41 20.7 °C 15.1 °C 1019.2 hPa Calm     70 % 0 mm
20:46 20.6 °C 14.9 °C 1019.2 hPa Calm     70 % 0 mm
20:51 20.4 °C 15 °C 1019.2 hPa Calm     71 % 0 mm
20:56 20.3 °C 15.1 °C 1019.5 hPa Calm     72 % 0 mm
21:01 20.3 °C 15.1 °C 1019.2 hPa Calm     72 % 0 mm
21:06 20.1 °C 15.1 °C 1019.2 hPa Calm     73 % 0 mm
21:12 20 °C 15.2 °C 1019.2 hPa Calm     74 % 0 mm
21:17 19.8 °C 15.1 °C 1018.8 hPa Calm   5.6 km/h 74 % 0 mm
21:22 19.7 °C 14.9 °C 1018.8 hPa Calm   1.9 km/h 74 % 0 mm
21:27 19.7 °C 15.1 °C 1019.2 hPa Calm     75 % 0 mm
21:32 19.6 °C 15.1 °C 1019.2 hPa Calm   1.9 km/h 75 % 0 mm
21:37 19.5 °C 14.9 °C 1019.2 hPa Calm     75 % 0 mm
21:42 19.4 °C 15.1 °C 1019.2 hPa Calm   1.9 km/h 76 % 0 mm
21:47 19.3 °C 15 °C 1019.2 hPa Calm     76 % 0 mm
21:52 19.3 °C 15.2 °C 1019.2 hPa Calm   1.6 km/h 77 % 0 mm
21:56 19.3 °C 15.2 °C 1019.2 hPa Calm   5.6 km/h 77 % 0 mm
22:01 19.2 °C 15.1 °C 1019.2 hPa SSE 0.2 km/h   77 % 0 mm
22:06 19.2 °C 15.1 °C 1019.2 hPa Calm   1.9 km/h 77 % 0 mm
22:11 19.1 °C 15 °C 1019.2 hPa Calm   1.6 km/h 77 % 0 mm
22:16 19.1 °C 15.1 °C 1019.2 hPa Calm     78 % 0 mm
22:21 19.1 °C 15.1 °C 1019.2 hPa Calm   1.9 km/h 78 % 0 mm
22:27 19 °C 15.3 °C 1018.8 hPa SSE 0.2 km/h 1.9 km/h 79 % 0 mm
22:32 18.9 °C 15.2 °C 1018.8 hPa Calm   5.6 km/h 79 % 0 mm
22:37 18.9 °C 15.2 °C 1018.8 hPa Calm     79 % 0 mm
22:42 18.9 °C 15.2 °C 1018.8 hPa Calm   1.9 km/h 79 % 0 mm
22:47 18.8 °C 15.1 °C 1018.8 hPa Calm     79 % 0 mm
22:52 18.8 °C 15.1 °C 1018.8 hPa Calm     79 % 0 mm
22:57 18.8 °C 15.3 °C 1018.8 hPa Calm     80 % 0 mm
23:02 18.7 °C 15.2 °C 1018.8 hPa Calm     80 % 0 mm
23:07 18.7 °C 15.2 °C 1018.8 hPa Calm   1.9 km/h 80 % 0 mm
23:12 18.6 °C 15.1 °C 1018.8 hPa SSE 0.3 km/h 1.9 km/h 80 % 0 mm
23:17 18.6 °C 15.1 °C 1018.8 hPa Calm     80 % 0 mm
23:22 18.4 °C 14.9 °C 1018.8 hPa SSE 0.2 km/h 1.9 km/h 80 % 0 mm
23:27 18.4 °C 14.9 °C 1018.8 hPa Calm     80 % 0 mm
23:32 18.3 °C 15 °C 1018.8 hPa SSE 0.2 km/h 1.9 km/h 81 % 0 mm
23:37 18.3 °C 14.9 °C 1018.8 hPa Calm     81 % 0 mm
23:42 18.2 °C 14.8 °C 1018.8 hPa Calm     81 % 0 mm
23:48 18.1 °C 14.8 °C 1018.8 hPa Calm   1.9 km/h 81 % 0 mm
23:53 18 °C 14.7 °C 1018.8 hPa Calm     81 % 0 mm
Crab Meadow Weather
Compliments of Weather Underground - 3 mb

Script developed by  Jim McMurry - jmcmurry@mwt.net Adapted for the template by  Wim van der Kuil - Leuven-Template.eu

Recycling: If every American home replaced just one light bulb with an ENERGY STAR qualified bulb, we would save enough energy to light more than 3 million homes for a year, more than $600 million in annual energy costs, and prevent greenhouse gases equivalent to the emissions of more than 800,000 cars.